WZZ134 EPWA-LHBP
Flight info
| Callsign | WZZ134 |
|---|---|
| Flight time | N/A |
| Altitude | 36000 |
| Route | EVINA DCT KUKAM DCT BABKO/N0430F350 DCT ULPUK DCT EDEMU |
| Aircraft | A321/M-SDE1E2E3FGIJ1J4RWXY/LB1 |
Departure
| Time | 2026-05-01 12:36 |
|---|---|
| Airport | Warsaw Chopin Airport (EPWA) |
Arrival
| Time | N/A |
|---|---|
| Airport | Budapest Liszt Ferenc International Airport (LHBP) |
| Time | Latitude | Longitude | Altitude | Speed | Heading |
|---|---|---|---|---|---|
| 2026-05-01 12:13 | 52.17000 | 20.97143 | 336 ft | 0 kts | 70° |
| 2026-05-01 12:28 | 52.16994 | 20.97118 | 334 ft | 4 kts | 70° |
| 2026-05-01 12:29 | 52.16985 | 20.97077 | 333 ft | 4 kts | 70° |
| 2026-05-01 12:29 | 52.16976 | 20.97036 | 333 ft | 4 kts | 70° |
| 2026-05-01 12:29 | 52.16969 | 20.97005 | 335 ft | 0 kts | 70° |
| 2026-05-01 12:33 | 52.16971 | 20.97011 | 334 ft | 3 kts | 72° |
| 2026-05-01 12:33 | 52.16930 | 20.97044 | 338 ft | 11 kts | 165° |
| 2026-05-01 12:33 | 52.16852 | 20.97106 | 338 ft | 17 kts | 152° |
| 2026-05-01 12:33 | 52.16713 | 20.97222 | 336 ft | 24 kts | 152° |
| 2026-05-01 12:34 | 52.16575 | 20.97382 | 335 ft | 25 kts | 122° |
| 2026-05-01 12:34 | 52.16497 | 20.97640 | 335 ft | 26 kts | 116° |
| 2026-05-01 12:34 | 52.16420 | 20.97915 | 338 ft | 27 kts | 114° |
| 2026-05-01 12:34 | 52.16343 | 20.98202 | 336 ft | 28 kts | 113° |
| 2026-05-01 12:35 | 52.16256 | 20.98452 | 337 ft | 21 kts | 150° |
| 2026-05-01 12:35 | 52.16136 | 20.98358 | 334 ft | 20 kts | 245° |
| 2026-05-01 12:35 | 52.16170 | 20.98151 | 338 ft | 19 kts | 294° |
| 2026-05-01 12:35 | 52.16238 | 20.97910 | 337 ft | 42 kts | 295° |
| 2026-05-01 12:36 | 52.16475 | 20.97070 | 334 ft | 119 kts | 295° |
| 2026-05-01 12:36 | 52.16897 | 20.95555 | 456 ft | 163 kts | 301° |
| 2026-05-01 12:36 | 52.17359 | 20.93946 | 1343 ft | 155 kts | 299° |
| 2026-05-01 12:36 | 52.17829 | 20.92300 | 1895 ft | 172 kts | 299° |
| 2026-05-01 12:37 | 52.18354 | 20.90408 | 2285 ft | 193 kts | 294° |
| 2026-05-01 12:37 | 52.18446 | 20.88052 | 2542 ft | 227 kts | 266° |
| 2026-05-01 12:37 | 52.18083 | 20.85351 | 2890 ft | 257 kts | 259° |
| 2026-05-01 12:37 | 52.17568 | 20.82484 | 3605 ft | 266 kts | 256° |
| 2026-05-01 12:38 | 52.17049 | 20.79595 | 4577 ft | 267 kts | 257° |
| 2026-05-01 12:38 | 52.16552 | 20.76654 | 5500 ft | 270 kts | 258° |
| 2026-05-01 12:38 | 52.16103 | 20.73665 | 6415 ft | 273 kts | 261° |
| 2026-05-01 12:38 | 52.15664 | 20.70616 | 7079 ft | 286 kts | 256° |
| 2026-05-01 12:39 | 52.14577 | 20.67851 | 7750 ft | 296 kts | 220° |
| 2026-05-01 12:39 | 52.12759 | 20.66212 | 8543 ft | 304 kts | 204° |
| 2026-05-01 12:39 | 52.10812 | 20.64776 | 9310 ft | 311 kts | 207° |
| 2026-05-01 12:39 | 52.08944 | 20.62942 | 10102 ft | 316 kts | 216° |
| 2026-05-01 12:40 | 52.07162 | 20.60778 | 10706 ft | 328 kts | 220° |
| 2026-05-01 12:40 | 52.05330 | 20.58349 | 10973 ft | 351 kts | 221° |
| 2026-05-01 12:40 | 52.03412 | 20.55747 | 11438 ft | 365 kts | 221° |
| 2026-05-01 12:40 | 52.01433 | 20.53098 | 12117 ft | 372 kts | 220° |
| 2026-05-01 12:41 | 51.99403 | 20.50445 | 12854 ft | 377 kts | 219° |
| 2026-05-01 12:41 | 51.97312 | 20.47821 | 13545 ft | 384 kts | 215° |
| 2026-05-01 12:41 | 51.94965 | 20.45696 | 14213 ft | 389 kts | 202° |
| 2026-05-01 12:41 | 51.92386 | 20.44322 | 14847 ft | 391 kts | 190° |
| 2026-05-01 12:42 | 51.89695 | 20.43700 | 15522 ft | 392 kts | 181° |
| 2026-05-01 12:42 | 51.87001 | 20.43307 | 16194 ft | 396 kts | 182° |
| 2026-05-01 12:42 | 51.84246 | 20.42894 | 16881 ft | 399 kts | 182° |
| 2026-05-01 12:42 | 51.81465 | 20.42472 | 17551 ft | 404 kts | 182° |
| 2026-05-01 12:43 | 51.78655 | 20.42043 | 18222 ft | 408 kts | 182° |
| 2026-05-01 12:43 | 51.75819 | 20.41609 | 18842 ft | 412 kts | 182° |
| 2026-05-01 12:43 | 51.72955 | 20.41173 | 19424 ft | 415 kts | 181° |
| 2026-05-01 12:43 | 51.70067 | 20.40733 | 20002 ft | 419 kts | 181° |
| 2026-05-01 12:44 | 51.67156 | 20.40290 | 20601 ft | 422 kts | 181° |
| 2026-05-01 12:44 | 51.64218 | 20.39845 | 21201 ft | 426 kts | 181° |
| 2026-05-01 12:44 | 51.58271 | 20.38947 | 22386 ft | 433 kts | 181° |
| 2026-05-01 12:45 | 51.52223 | 20.38033 | 23551 ft | 440 kts | 181° |
| 2026-05-01 12:45 | 51.49163 | 20.37569 | 24082 ft | 444 kts | 181° |
| 2026-05-01 12:45 | 51.46076 | 20.37103 | 24554 ft | 447 kts | 181° |
| 2026-05-01 12:46 | 51.42972 | 20.36635 | 25015 ft | 450 kts | 181° |
| 2026-05-01 12:46 | 51.39848 | 20.36109 | 25475 ft | 454 kts | 185° |
| 2026-05-01 12:46 | 51.36744 | 20.34962 | 25916 ft | 462 kts | 194° |
| 2026-05-01 12:46 | 51.33683 | 20.33350 | 26361 ft | 465 kts | 195° |
| 2026-05-01 12:47 | 51.30602 | 20.31731 | 26803 ft | 468 kts | 195° |
| 2026-05-01 12:47 | 51.27500 | 20.30117 | 27231 ft | 471 kts | 195° |
| 2026-05-01 12:47 | 51.24373 | 20.28503 | 27656 ft | 473 kts | 195° |
| 2026-05-01 12:47 | 51.21230 | 20.26880 | 28078 ft | 476 kts | 195° |
| 2026-05-01 12:48 | 51.18069 | 20.25249 | 28503 ft | 479 kts | 195° |
| 2026-05-01 12:48 | 51.14888 | 20.23607 | 28923 ft | 482 kts | 195° |
| 2026-05-01 12:48 | 51.11732 | 20.21982 | 29331 ft | 485 kts | 195° |
| 2026-05-01 12:48 | 51.08473 | 20.20306 | 29736 ft | 487 kts | 195° |
| 2026-05-01 12:49 | 51.05236 | 20.18642 | 30138 ft | 490 kts | 195° |
| 2026-05-01 12:49 | 51.02027 | 20.16994 | 30494 ft | 493 kts | 195° |
| 2026-05-01 12:49 | 50.98706 | 20.15296 | 30829 ft | 496 kts | 195° |
| 2026-05-01 12:49 | 50.95466 | 20.13639 | 31148 ft | 498 kts | 195° |
| 2026-05-01 12:50 | 50.92157 | 20.11948 | 31471 ft | 501 kts | 195° |
| 2026-05-01 12:50 | 50.88831 | 20.10248 | 31789 ft | 504 kts | 195° |
| 2026-05-01 12:50 | 50.85490 | 20.08539 | 32122 ft | 506 kts | 195° |
| 2026-05-01 12:50 | 50.82142 | 20.06826 | 32574 ft | 505 kts | 195° |
| 2026-05-01 12:51 | 50.78800 | 20.05121 | 33026 ft | 505 kts | 196° |
| 2026-05-01 12:51 | 50.75457 | 20.03425 | 33465 ft | 504 kts | 195° |
| 2026-05-01 12:51 | 50.68773 | 20.00052 | 34339 ft | 505 kts | 195° |
| 2026-05-01 12:52 | 50.65427 | 19.98367 | 34645 ft | 506 kts | 195° |
| 2026-05-01 12:52 | 50.58728 | 19.94992 | 35393 ft | 504 kts | 196° |
| 2026-05-01 12:52 | 50.55392 | 19.93307 | 35795 ft | 503 kts | 196° |
| 2026-05-01 12:53 | 50.48742 | 19.89966 | 36295 ft | 499 kts | 196° |
| 2026-05-01 12:53 | 50.45453 | 19.88319 | 36321 ft | 494 kts | 196° |
| 2026-05-01 12:54 | 50.38930 | 19.85067 | 36320 ft | 491 kts | 195° |
| 2026-05-01 12:54 | 50.29171 | 19.80229 | 36325 ft | 490 kts | 195° |
| 2026-05-01 12:55 | 50.19420 | 19.75383 | 36328 ft | 490 kts | 195° |
| 2026-05-01 12:56 | 50.12916 | 19.72172 | 36335 ft | 491 kts | 195° |
| 2026-05-01 12:56 | 50.06402 | 19.68980 | 36345 ft | 491 kts | 195° |
| 2026-05-01 12:57 | 49.99916 | 19.65797 | 36343 ft | 492 kts | 195° |
| 2026-05-01 12:57 | 49.90120 | 19.61002 | 36345 ft | 492 kts | 195° |
| 2026-05-01 12:58 | 49.83590 | 19.57811 | 36348 ft | 492 kts | 195° |
| 2026-05-01 12:59 | 49.73787 | 19.53043 | 36350 ft | 492 kts | 195° |
| 2026-05-01 12:59 | 49.63960 | 19.48455 | 36350 ft | 490 kts | 189° |
| 2026-05-01 13:00 | 49.57236 | 19.47709 | 36349 ft | 481 kts | 171° |
| 2026-05-01 13:00 | 49.53927 | 19.48298 | 36349 ft | 479 kts | 168° |
| 2026-05-01 13:01 | 49.44009 | 19.50184 | 36345 ft | 479 kts | 168° |
| 2026-05-01 13:02 | 49.34079 | 19.52038 | 36336 ft | 479 kts | 168° |
| 2026-05-01 13:07 | 48.65493 | 19.63589 | 29282 ft | 459 kts | 179° |
| 2026-05-01 13:07 | 48.62336 | 19.63260 | 28969 ft | 450 kts | 179° |
| 2026-05-01 13:07 | 48.59239 | 19.62927 | 28689 ft | 444 kts | 179° |
| 2026-05-01 13:08 | 48.56109 | 19.62609 | 28421 ft | 458 kts | 178° |
| 2026-05-01 13:08 | 48.52905 | 19.62300 | 28153 ft | 463 kts | 178° |
| 2026-05-01 13:08 | 48.49688 | 19.61987 | 27894 ft | 463 kts | 178° |
| 2026-05-01 13:08 | 48.46493 | 19.61671 | 27393 ft | 459 kts | 178° |
| 2026-05-01 13:09 | 48.43308 | 19.61357 | 26816 ft | 456 kts | 178° |
| 2026-05-01 13:09 | 48.40151 | 19.61040 | 26255 ft | 454 kts | 178° |
| 2026-05-01 13:09 | 48.37009 | 19.60727 | 25700 ft | 451 kts | 178° |
| 2026-05-01 13:09 | 48.33890 | 19.60423 | 25172 ft | 448 kts | 178° |
| 2026-05-01 13:10 | 48.30788 | 19.60127 | 24637 ft | 446 kts | 178° |
| 2026-05-01 13:10 | 48.28701 | 19.59928 | 24299 ft | 444 kts | 178° |
| 2026-05-01 13:10 | 48.25628 | 19.59632 | 23784 ft | 442 kts | 178° |
| 2026-05-01 13:10 | 48.22570 | 19.59337 | 23248 ft | 438 kts | 178° |
| 2026-05-01 13:11 | 48.19581 | 19.59045 | 22767 ft | 435 kts | 179° |
| 2026-05-01 13:11 | 48.16571 | 19.58748 | 22288 ft | 432 kts | 179° |
| 2026-05-01 13:11 | 48.12567 | 19.58355 | 21592 ft | 429 kts | 179° |
| 2026-05-01 13:11 | 48.10603 | 19.58163 | 21255 ft | 428 kts | 179° |
| 2026-05-01 13:12 | 48.07634 | 19.57874 | 20745 ft | 426 kts | 179° |
| 2026-05-01 13:12 | 48.04687 | 19.57588 | 20220 ft | 424 kts | 179° |
| 2026-05-01 13:12 | 48.01751 | 19.57302 | 19678 ft | 422 kts | 179° |
| 2026-05-01 13:12 | 47.98826 | 19.57020 | 19123 ft | 420 kts | 180° |
| 2026-05-01 13:13 | 47.95908 | 19.56741 | 18580 ft | 419 kts | 180° |
| 2026-05-01 13:13 | 47.93002 | 19.56466 | 17980 ft | 417 kts | 180° |
| 2026-05-01 13:13 | 47.90118 | 19.56192 | 17436 ft | 414 kts | 180° |
| 2026-05-01 13:13 | 47.87257 | 19.55917 | 16888 ft | 410 kts | 180° |
| 2026-05-01 13:14 | 47.84425 | 19.55642 | 16342 ft | 406 kts | 180° |
| 2026-05-01 13:14 | 47.81613 | 19.55366 | 15802 ft | 403 kts | 180° |
| 2026-05-01 13:14 | 47.78827 | 19.55094 | 15258 ft | 400 kts | 180° |
| 2026-05-01 13:14 | 47.76059 | 19.54830 | 14721 ft | 397 kts | 180° |
| 2026-05-01 13:15 | 47.73314 | 19.54544 | 14165 ft | 395 kts | 183° |
| 2026-05-01 13:15 | 47.70638 | 19.53639 | 13600 ft | 395 kts | 198° |
| 2026-05-01 13:15 | 47.68184 | 19.51861 | 13110 ft | 390 kts | 212° |
| 2026-05-01 13:15 | 47.66080 | 19.49374 | 12614 ft | 384 kts | 224° |
| 2026-05-01 13:16 | 47.64130 | 19.46698 | 12117 ft | 379 kts | 224° |
| 2026-05-01 13:16 | 47.62240 | 19.44125 | 11838 ft | 354 kts | 223° |
| 2026-05-01 13:16 | 47.60493 | 19.41765 | 11539 ft | 330 kts | 223° |